Yellowstone National Park, Wyoming
Current Conditions -  °F | °C
As of 12:27 AM on Sunday 23 Nov 2014 (Local Time) from KDIJ Reporting Station
Light Snow Light Snow  
Wind Chill: -8°   Ceiling: 1800
Heat Index: -4°   Visibility: 8mi
Dew Point: -6°   Wind: 7mph
Humidity: 86%   Direction: 90°E
Pressure: 29.82"   Gusts: NA
Location:  44.5747°N, 110.518°W
Report Text: KDIJ 230727Z AUTO 09006KT 8SM -SN SCT001 BKN018 OVC029 M04/M06 A2982 RMK AO2 P0000
Loading
Personal Weather Stations






























Interactive Weather Map New forecast layout! Learn more

10-Day Weather Forecast

Advertisements
Track Severe Weather on mobile